Time,TemperatureF,DewpointF,PressureIn,WindDirection,WindDirectionDegrees,WindSpeedMPH,WindSpeedGustMPH,Humidity,HourlyPrecipIn,Conditions,Clouds,dailyrainin,SoftwareType,DateUTC
2013-04-21 00:01:00,28.4,21.5,30.42,WSW,248,0.0,0.0,75,0.00,RA,,0.00,WeatherDisplay:10.37,2013-04-21 04:01:00,
2013-04-21 00:02:00,28.2,21.3,30.42,WSW,248,0.0,0.0,75,0.00,RA,,0.00,WeatherDisplay:10.37,2013-04-21 04:02:00,
2013-04-21 00:03:00,28.0,21.4,30.42,WSW,248,0.0,0.0,76,0.00,RA,,0.00,WeatherDisplay:10.37,2013-04-21 04:03:00,
2013-04-21 00:08:00,27.7,21.4,30.42,WSW,248,0.0,0.0,77,0.00,RA,,0.00,WeatherDisplay:10.37,2013-04-21 04:08:00,
2013-04-21 00:13:00,27.3,21.0,30.42,WSW,248,0.0,0.0,77,0.00,SCT,,0.00,WeatherDisplay:10.37,2013-04-21 04:13:00,
2013-04-21 00:18:00,27.1,20.8,30.43,WSW,248,0.0,0.0,77,0.00,SCT,,0.00,WeatherDisplay:10.37,2013-04-21 04:18:00,
2013-04-21 00:23:00,27.0,21.4,30.43,East,90,0.0,0.0,79,0.00,SCT,,0.00,WeatherDisplay:10.37,2013-04-21 04:23:00,
2013-04-21 00:28:00,27.1,21.7,30.43,SE,135,0.0,0.0,80,0.00,SCT,,0.00,WeatherDisplay:10.37,2013-04-21 04:28:00,
2013-04-21 00:33:00,27.1,21.7,30.44,SW,225,0.0,0.0,80,0.00,SCT,,0.00,WeatherDisplay:10.37,2013-04-21 04:33:00,
2013-04-21 00:38:00,27.0,21.7,30.44,SW,225,0.0,0.0,80,0.00,SCT,,0.00,WeatherDisplay:10.37,2013-04-21 04:38:00,
2013-04-21 00:43:00,27.3,22.2,30.44,South,180,0.0,0.0,81,0.00,SCT,,0.00,WeatherDisplay:10.37,2013-04-21 04:43:00,
2013-04-21 00:48:00,27.1,22.0,30.44,SSE,158,0.0,0.0,81,0.00,SCT,,0.00,WeatherDisplay:10.37,2013-04-21 04:48:00,
2013-04-21 00:53:00,26.6,21.8,30.45,South,180,0.0,0.0,82,0.00,SCT,,0.00,WeatherDisplay:10.37,2013-04-21 04:53:00,
2013-04-21 00:58:00,26.1,21.1,30.45,South,180,0.0,0.0,81,0.00,SCT,,0.00,WeatherDisplay:10.37,2013-04-21 04:58:00,
2013-04-21 01:03:00,25.5,20.8,30.45,South,180,0.0,0.0,82,0.00,FEW,,0.00,WeatherDisplay:10.37,2013-04-21 05:03:00,
2013-04-21 01:08:00,25.2,20.5,30.45,South,180,0.0,0.0,82,0.00,FEW,,0.00,WeatherDisplay:10.37,2013-04-21 05:08:00,
2013-04-21 01:13:00,24.8,20.4,30.45,South,180,0.0,0.0,83,0.00,FEW,,0.00,WeatherDisplay:10.37,2013-04-21 05:13:00,
2013-04-21 01:18:00,24.4,20.0,30.45,South,180,0.0,0.0,83,0.00,FEW,,0.00,WeatherDisplay:10.37,2013-04-21 05:18:00,
2013-04-21 01:23:00,25.2,22.4,30.45,South,180,0.0,0.0,89,0.00,FEW,,0.00,WeatherDisplay:10.37,2013-04-21 05:23:00,
2013-04-21 01:28:00,24.3,21.3,30.46,ESE,112,0.0,0.0,88,0.00,FEW,,0.00,WeatherDisplay:10.37,2013-04-21 05:28:00,
2013-04-21 01:33:00,24.1,21.3,30.46,SE,135,0.0,0.0,89,0.00,FEW,,0.00,WeatherDisplay:10.37,2013-04-21 05:33:00,
2013-04-21 01:38:00,23.9,21.1,30.46,SE,135,0.0,0.0,89,0.00,FEW,,0.00,WeatherDisplay:10.37,2013-04-21 05:38:00,
2013-04-21 01:43:00,24.1,21.6,30.46,South,180,0.0,0.0,90,0.00,FEW,,0.00,WeatherDisplay:10.37,2013-04-21 05:43:00,
2013-04-21 01:48:00,23.7,20.9,30.46,SSE,158,0.0,0.0,89,0.00,FEW,,0.00,WeatherDisplay:10.37,2013-04-21 05:48:00,
2013-04-21 01:53:00,23.7,21.2,30.47,ESE,112,0.0,0.0,90,0.00,FEW,,0.00,WeatherDisplay:10.37,2013-04-21 05:53:00,
2013-04-21 01:58:00,23.7,21.7,30.47,ESE,112,0.0,0.0,92,0.00,FEW,,0.00,WeatherDisplay:10.37,2013-04-21 05:58:00,
2013-04-21 02:03:00,24.3,22.6,30.47,SE,135,0.0,0.0,93,0.00,FEW,,0.00,WeatherDisplay:10.37,2013-04-21 06:03:00,
2013-04-21 02:08:00,23.9,21.9,30.47,SE,135,0.0,0.0,92,0.00,FEW,,0.00,WeatherDisplay:10.37,2013-04-21 06:08:00,
2013-04-21 02:13:00,23.9,21.9,30.47,South,180,0.0,0.0,92,0.00,FEW,,0.00,WeatherDisplay:10.37,2013-04-21 06:13:00,
2013-04-21 02:18:00,23.4,21.2,30.48,SW,225,0.0,0.0,91,0.00,FEW,,0.00,WeatherDisplay:10.37,2013-04-21 06:18:00,
2013-04-21 02:23:00,23.4,21.7,30.48,South,180,0.0,0.0,93,0.00,FEW,,0.00,WeatherDisplay:10.37,2013-04-21 06:23:00,
2013-04-21 02:28:00,23.5,21.8,30.48,South,180,0.0,0.0,93,0.00,FEW,,0.00,WeatherDisplay:10.37,2013-04-21 06:28:00,
2013-04-21 02:33:00,23.7,22.2,30.48,South,180,0.0,0.0,94,0.00,FEW,,0.00,WeatherDisplay:10.37,2013-04-21 06:33:00,
2013-04-21 02:38:00,23.4,21.7,30.48,South,180,0.0,0.0,93,0.00,FEW,,0.00,WeatherDisplay:10.37,2013-04-21 06:38:00,
2013-04-21 02:43:00,23.0,21.3,30.48,SSE,158,0.0,0.0,93,0.00,FEW,,0.00,WeatherDisplay:10.37,2013-04-21 06:43:00,
2013-04-21 02:48:00,22.5,20.5,30.48,SSE,158,0.0,0.0,92,0.00,FEW,,0.00,WeatherDisplay:10.37,2013-04-21 06:48:00,
2013-04-21 02:53:00,22.1,20.1,30.49,East,90,0.0,0.0,92,0.00,FEW,,0.00,WeatherDisplay:10.37,2013-04-21 06:53:00,
2013-04-21 02:58:00,22.1,20.4,30.49,ENE,68,0.0,0.0,93,0.00,FEW,,0.00,WeatherDisplay:10.37,2013-04-21 06:58:00,
2013-04-21 03:03:00,22.1,20.6,30.49,ENE,68,0.0,0.0,94,0.00,FEW,,0.00,WeatherDisplay:10.37,2013-04-21 07:03:00,
2013-04-21 03:08:00,22.3,20.8,30.49,SE,135,0.0,0.0,94,0.00,FEW,,0.00,WeatherDisplay:10.37,2013-04-21 07:08:00,
2013-04-21 03:13:00,22.3,20.8,30.49,SE,135,0.0,0.0,94,0.00,FEW,,0.00,WeatherDisplay:10.37,2013-04-21 07:13:00,
2013-04-21 03:18:00,22.1,20.6,30.49,South,180,0.0,0.0,94,0.00,FEW,,0.00,WeatherDisplay:10.37,2013-04-21 07:18:00,
2013-04-21 03:23:00,21.6,19.6,30.49,South,180,0.0,0.0,92,0.00,FEW,,0.00,WeatherDisplay:10.37,2013-04-21 07:23:00,
2013-04-21 03:28:00,21.6,19.6,30.49,South,180,0.0,0.0,92,0.00,FEW,,0.00,WeatherDisplay:10.37,2013-04-21 07:28:00,
2013-04-21 03:33:00,21.6,19.9,30.49,South,180,0.0,0.0,93,0.00,FEW,,0.00,WeatherDisplay:10.37,2013-04-21 07:33:00,
2013-04-21 03:38:00,21.7,20.5,30.49,South,180,0.0,0.0,95,0.00,FEW,,0.00,WeatherDisplay:10.37,2013-04-21 07:38:00,
2013-04-21 03:43:00,22.3,21.1,30.50,SSW,202,0.0,0.0,95,0.00,FEW,,0.00,WeatherDisplay:10.37,2013-04-21 07:43:00,
2013-04-21 03:48:00,21.9,20.7,30.50,SSW,202,0.0,0.0,95,0.00,FEW,,0.00,WeatherDisplay:10.37,2013-04-21 07:48:00,
2013-04-21 03:53:00,21.0,19.5,30.50,SSW,202,0.0,0.0,94,0.00,FEW,,0.00,WeatherDisplay:10.37,2013-04-21 07:53:00,
2013-04-21 03:58:00,20.7,19.2,30.50,SSW,202,0.0,0.0,94,0.00,FEW,,0.00,WeatherDisplay:10.37,2013-04-21 07:58:00,
2013-04-21 04:03:00,20.7,19.2,30.50,SSW,202,0.0,0.0,94,0.00,FEW,,0.00,WeatherDisplay:10.37,2013-04-21 08:03:00,
2013-04-21 04:08:00,21.9,20.7,30.51,SSW,202,0.0,0.0,95,0.00,FEW,,0.00,WeatherDisplay:10.37,2013-04-21 08:08:00,
2013-04-21 04:13:00,21.6,20.4,30.51,SSW,202,0.0,0.0,95,0.00,FEW,,0.00,WeatherDisplay:10.37,2013-04-21 08:13:00,
2013-04-21 04:18:00,22.5,21.3,30.51,SSW,202,0.0,0.0,95,0.00,FEW,,0.00,WeatherDisplay:10.37,2013-04-21 08:18:00,
2013-04-21 04:23:00,22.5,21.3,30.51,SSW,202,0.0,0.0,95,0.00,FEW,,0.00,WeatherDisplay:10.37,2013-04-21 08:23:00,
2013-04-21 04:28:00,22.5,21.3,30.51,SSW,202,0.0,0.0,95,0.00,FEW,,0.00,WeatherDisplay:10.37,2013-04-21 08:28:00,
2013-04-21 04:33:00,21.6,20.4,30.51,SSE,158,0.0,0.0,95,0.00,FEW,,0.00,WeatherDisplay:10.37,2013-04-21 08:33:00,
2013-04-21 04:38:00,21.2,20.0,30.51,SSE,158,0.0,0.0,95,0.00,FEW,,0.00,WeatherDisplay:10.37,2013-04-21 08:38:00,
2013-04-21 04:43:00,21.0,19.8,30.51,SSE,158,0.0,0.0,95,0.00,FEW,,0.00,WeatherDisplay:10.37,2013-04-21 08:43:00,
2013-04-21 04:48:00,20.7,19.5,30.51,SSE,158,0.0,0.0,95,0.00,FEW,,0.00,WeatherDisplay:10.37,2013-04-21 08:48:00,
2013-04-21 04:53:00,20.5,19.3,30.52,SSE,158,0.0,0.0,95,0.00,FEW,,0.00,WeatherDisplay:10.37,2013-04-21 08:53:00,
2013-04-21 04:58:00,20.3,19.1,30.52,ESE,112,0.0,0.0,95,0.00,FEW,,0.00,WeatherDisplay:10.37,2013-04-21 08:58:00,
2013-04-21 05:03:00,20.3,19.1,30.52,SE,135,0.0,0.0,95,0.00,FEW,,0.00,WeatherDisplay:10.37,2013-04-21 09:03:00,
2013-04-21 05:08:00,20.3,19.1,30.53,ESE,112,0.0,0.0,95,0.00,FEW,,0.00,WeatherDisplay:10.37,2013-04-21 09:08:00,
2013-04-21 05:13:00,20.1,18.9,30.53,East,90,0.0,0.0,95,0.00,FEW,,0.00,WeatherDisplay:10.37,2013-04-21 09:13:00,
2013-04-21 05:18:00,20.3,19.1,30.53,SE,135,0.0,0.0,95,0.00,FEW,,0.00,WeatherDisplay:10.37,2013-04-21 09:18:00,
2013-04-21 05:23:00,20.8,19.6,30.53,SE,135,0.0,0.0,95,0.00,FEW,,0.00,WeatherDisplay:10.37,2013-04-21 09:23:00,
2013-04-21 05:28:00,20.5,19.3,30.53,SE,135,0.0,0.0,95,0.00,FEW,,0.00,WeatherDisplay:10.37,2013-04-21 09:28:00,
2013-04-21 05:33:00,20.5,19.3,30.53,SE,135,0.0,0.0,95,0.00,FEW,,0.00,WeatherDisplay:10.37,2013-04-21 09:33:00,
2013-04-21 05:38:00,20.5,19.3,30.53,SE,135,0.0,0.0,95,0.00,FEW,,0.00,WeatherDisplay:10.37,2013-04-21 09:38:00,
2013-04-21 05:43:00,20.5,19.3,30.53,SE,135,0.0,0.0,95,0.00,FEW,,0.00,WeatherDisplay:10.37,2013-04-21 09:43:00,
2013-04-21 05:48:00,20.8,19.6,30.54,SE,135,0.0,0.0,95,0.00,FEW,,0.00,WeatherDisplay:10.37,2013-04-21 09:48:00,
2013-04-21 05:53:00,20.3,19.1,30.55,SW,225,0.0,0.0,95,0.00,FEW,,0.00,WeatherDisplay:10.37,2013-04-21 09:53:00,
2013-04-21 05:58:00,21.0,19.8,30.55,SW,225,0.0,0.0,95,0.00,FEW,,0.00,WeatherDisplay:10.37,2013-04-21 09:58:00,
2013-04-21 06:03:00,21.0,19.8,30.55,SE,135,0.0,0.0,95,0.00,FEW,,0.00,WeatherDisplay:10.37,2013-04-21 10:03:00,
2013-04-21 06:08:00,20.7,19.5,30.56,SE,135,0.0,0.0,95,0.00,FEW,,0.00,WeatherDisplay:10.37,2013-04-21 10:08:00,
2013-04-21 06:13:00,20.3,19.1,30.56,SE,135,0.0,0.0,95,0.00,FEW,,0.00,WeatherDisplay:10.37,2013-04-21 10:13:00,
2013-04-21 06:18:00,19.9,18.7,30.56,SE,135,0.0,0.0,95,0.00,FEW,,0.00,WeatherDisplay:10.37,2013-04-21 10:18:00,
2013-04-21 06:23:00,19.4,18.2,30.56,SE,135,0.0,0.0,95,0.00,FEW,,0.00,WeatherDisplay:10.37,2013-04-21 10:23:00,
2013-04-21 06:28:00,19.4,18.2,30.57,SE,135,0.0,0.0,95,0.00,FEW,,0.00,WeatherDisplay:10.37,2013-04-21 10:28:00,
2013-04-21 06:33:00,19.6,18.4,30.57,SE,135,0.0,0.0,95,0.00,FEW,,0.00,WeatherDisplay:10.37,2013-04-21 10:33:00,
2013-04-21 06:38:00,19.8,18.6,30.57,SE,135,0.0,0.0,95,0.00,FEW,,0.00,WeatherDisplay:10.37,2013-04-21 10:38:00,
2013-04-21 06:43:00,20.5,19.3,30.58,SE,135,0.0,0.0,95,0.00,FEW,,0.00,WeatherDisplay:10.37,2013-04-21 10:43:00,
2013-04-21 06:48:00,20.7,19.5,30.58,SE,135,0.0,0.0,95,0.00,FEW,,0.00,WeatherDisplay:10.37,2013-04-21 10:48:00,
2013-04-21 06:53:00,20.7,19.5,30.58,SE,135,0.0,0.0,95,0.00,FEW,,0.00,WeatherDisplay:10.37,2013-04-21 10:53:00,
2013-04-21 06:58:00,21.0,19.8,30.58,SE,135,0.0,0.0,95,0.00,FEW,,0.00,WeatherDisplay:10.37,2013-04-21 10:58:00,
2013-04-21 07:03:00,22.1,20.9,30.58,SE,135,0.0,0.0,95,0.00,SCT,,0.00,WeatherDisplay:10.37,2013-04-21 11:03:00,
2013-04-21 07:08:00,22.3,21.1,30.59,SE,135,0.0,0.0,95,0.00,SCT,,0.00,WeatherDisplay:10.37,2013-04-21 11:08:00,
2013-04-21 07:13:00,23.2,22.0,30.59,SE,135,0.0,0.0,95,0.00,SCT,,0.00,WeatherDisplay:10.37,2013-04-21 11:13:00,
2013-04-21 07:18:00,24.8,23.6,30.60,SE,135,0.0,0.0,95,0.00,SCT,,0.00,WeatherDisplay:10.37,2013-04-21 11:18:00,
2013-04-21 07:23:00,26.6,25.4,30.60,SE,135,0.0,0.0,95,0.00,SCT,,0.00,WeatherDisplay:10.37,2013-04-21 11:23:00,
2013-04-21 07:28:00,28.6,27.4,30.60,ESE,112,0.0,0.0,95,0.00,SCT,,0.00,WeatherDisplay:10.37,2013-04-21 11:28:00,
2013-04-21 07:33:00,29.8,28.5,30.60,SE,135,0.0,0.0,95,0.00,SCT,,0.00,WeatherDisplay:10.37,2013-04-21 11:33:00,
2013-04-21 07:38:00,31.3,27.6,30.60,SE,135,0.0,0.0,86,0.00,SCT,,0.00,WeatherDisplay:10.37,2013-04-21 11:38:00,
2013-04-21 07:43:00,32.7,28.1,30.61,SE,135,0.0,0.0,83,0.00,SCT,,0.00,WeatherDisplay:10.37,2013-04-21 11:43:00,
2013-04-21 07:48:00,33.6,28.4,30.61,SE,135,0.0,0.0,81,0.00,SCT,,0.00,WeatherDisplay:10.37,2013-04-21 11:48:00,
2013-04-21 07:53:00,34.2,27.7,30.61,SE,135,0.0,0.0,77,0.00,SCT,,0.00,WeatherDisplay:10.37,2013-04-21 11:53:00,
2013-04-21 07:58:00,34.2,26.4,30.61,SE,135,0.0,0.0,73,0.00,SCT,,0.00,WeatherDisplay:10.37,2013-04-21 11:58:00,
2013-04-21 08:03:00,37.0,28.8,30.61,SE,135,0.0,0.0,72,0.00,FEW,,0.00,WeatherDisplay:10.37,2013-04-21 12:03:00,
2013-04-21 08:08:00,38.5,28.1,30.61,ESE,112,0.0,0.0,66,0.00,FEW,,0.00,WeatherDisplay:10.37,2013-04-21 12:08:00,
2013-04-21 08:13:00,40.8,26.3,30.61,SSW,202,0.7,2.3,56,0.00,FEW,,0.00,WeatherDisplay:10.37,2013-04-21 12:13:00,
2013-04-21 08:18:00,39.4,25.4,30.62,SSE,158,0.0,1.1,57,0.00,FEW,,0.00,WeatherDisplay:10.37,2013-04-21 12:18:00,
2013-04-21 08:23:00,39.7,25.7,30.62,West,270,1.9,2.3,57,0.00,FEW,,0.00,WeatherDisplay:10.37,2013-04-21 12:23:00,
2013-04-21 08:28:00,39.7,24.8,30.63,North,360,3.1,3.5,55,0.00,FEW,,0.00,WeatherDisplay:10.37,2013-04-21 12:28:00,
2013-04-21 08:33:00,40.6,24.3,30.63,ENE,68,1.4,2.3,52,0.00,FEW,,0.00,WeatherDisplay:10.37,2013-04-21 12:33:00,
2013-04-21 08:38:00,41.9,24.6,30.63,East,90,2.8,3.5,50,0.00,FEW,,0.00,WeatherDisplay:10.37,2013-04-21 12:38:00,
2013-04-21 08:43:00,41.5,23.2,30.64,ESE,112,2.6,3.5,48,0.00,FEW,,0.00,WeatherDisplay:10.37,2013-04-21 12:43:00,
2013-04-21 08:48:00,35.1,23.0,30.64,ESE,112,3.8,4.6,61,0.00,FEW,,0.00,WeatherDisplay:10.37,2013-04-21 12:48:00,
2013-04-21 08:53:00,34.0,20.8,30.64,SSE,158,5.1,5.8,58,0.00,FEW,,0.00,WeatherDisplay:10.37,2013-04-21 12:53:00,
2013-04-21 08:58:00,34.5,21.6,30.64,ESE,112,4.9,5.8,59,0.00,FEW,,0.00,WeatherDisplay:10.37,2013-04-21 12:58:00,
2013-04-21 09:03:00,35.6,23.1,30.64,SE,135,2.9,3.5,60,0.00,FEW,,0.00,WeatherDisplay:10.37,2013-04-21 13:03:00,
2013-04-21 09:08:00,35.4,22.5,30.65,ESE,112,3.2,4.2,59,0.00,FEW,,0.00,WeatherDisplay:10.37,2013-04-21 13:08:00,
2013-04-21 09:13:00,35.2,21.1,30.65,ESE,112,5.4,5.8,56,0.00,FEW,,0.00,WeatherDisplay:10.37,2013-04-21 13:13:00,
2013-04-21 09:18:00,35.2,21.1,30.65,East,90,4.8,5.8,56,0.00,FEW,,0.00,WeatherDisplay:10.37,2013-04-21 13:18:00,
2013-04-21 09:23:00,35.8,22.0,30.65,SE,135,2.9,3.5,57,0.00,FEW,,0.00,WeatherDisplay:10.37,2013-04-21 13:23:00,
2013-04-21 09:28:00,36.5,23.1,30.65,East,90,3.7,4.6,58,0.00,FEW,,0.00,WeatherDisplay:10.37,2013-04-21 13:28:00,
2013-04-21 09:33:00,36.5,22.7,30.65,SSE,158,5.0,5.8,57,0.00,FEW,,0.00,WeatherDisplay:10.37,2013-04-21 13:33:00,
2013-04-21 09:38:00,36.9,22.2,30.65,SSW,202,3.8,4.7,55,0.00,FEW,,0.00,WeatherDisplay:10.37,2013-04-21 13:38:00,
2013-04-21 09:43:00,35.6,21.4,30.66,West,270,2.5,5.8,56,0.00,FEW,,0.00,WeatherDisplay:10.37,2013-04-21 13:43:00,
2013-04-21 09:48:00,34.9,20.8,30.66,North,360,2.5,2.5,56,0.00,FEW,,0.00,WeatherDisplay:10.37,2013-04-21 13:48:00,
2013-04-21 09:53:00,34.9,21.2,30.66,NE,45,1.9,2.3,57,0.00,FEW,,0.00,WeatherDisplay:10.37,2013-04-21 13:53:00,
2013-04-21 09:58:00,34.5,20.8,30.66,ESE,112,4.0,4.7,57,0.00,FEW,,0.00,WeatherDisplay:10.37,2013-04-21 13:58:00,
2013-04-21 10:03:00,37.0,22.7,30.66,North,360,2.4,2.4,56,0.00,BKN,,0.00,WeatherDisplay:10.37,2013-04-21 14:03:00,
2013-04-21 10:08:00,37.4,23.1,30.66,ESE,112,3.1,3.5,56,0.00,BKN,,0.00,WeatherDisplay:10.37,2013-04-21 14:08:00,
2013-04-21 10:13:00,37.2,21.6,30.66,SE,135,4.2,4.6,53,0.00,BKN,,0.00,WeatherDisplay:10.37,2013-04-21 14:13:00,
2013-04-21 10:18:00,39.0,22.8,30.65,East,90,4.8,5.8,52,0.00,BKN,,0.00,WeatherDisplay:10.37,2013-04-21 14:18:00,
2013-04-21 10:23:00,37.9,20.9,30.65,ESE,112,6.2,6.9,50,0.00,BKN,,0.00,WeatherDisplay:10.37,2013-04-21 14:23:00,
2013-04-21 10:28:00,38.7,23.0,30.67,ESE,112,5.5,6.3,53,0.00,BKN,,0.00,WeatherDisplay:10.37,2013-04-21 14:28:00,
2013-04-21 10:33:00,38.7,22.6,30.67,East,90,5.6,6.3,52,0.00,BKN,,0.00,WeatherDisplay:10.37,2013-04-21 14:33:00,
2013-04-21 10:38:00,36.5,20.5,30.67,East,90,5.2,5.8,52,0.00,BKN,,0.00,WeatherDisplay:10.37,2013-04-21 14:38:00,
2013-04-21 10:43:00,36.5,21.0,30.67,SSE,158,3.9,4.6,53,0.00,BKN,,0.00,WeatherDisplay:10.37,2013-04-21 14:43:00,
2013-04-21 10:48:00,38.3,21.7,30.67,ESE,112,4.7,4.7,51,0.00,BKN,,0.00,WeatherDisplay:10.37,2013-04-21 14:48:00,
2013-04-21 10:53:00,37.6,22.9,30.66,SE,135,2.3,2.7,55,0.00,BKN,,0.00,WeatherDisplay:10.37,2013-04-21 14:53:00,
2013-04-21 10:58:00,37.9,20.9,30.66,SE,135,3.3,4.6,50,0.00,BKN,,0.00,WeatherDisplay:10.37,2013-04-21 14:58:00,
2013-04-21 11:03:00,39.7,23.5,30.66,ESE,112,2.0,3.5,52,0.00,BKN,,0.00,WeatherDisplay:10.37,2013-04-21 15:03:00,
2013-04-21 11:08:00,40.1,23.4,30.66,ESE,112,4.9,5.8,51,0.00,BKN,,0.00,WeatherDisplay:10.37,2013-04-21 15:08:00,
2013-04-21 11:13:00,37.6,20.6,30.66,SE,135,3.6,4.6,50,0.00,BKN,,0.00,WeatherDisplay:10.37,2013-04-21 15:13:00,
2013-04-21 11:18:00,38.5,21.0,30.66,NE,45,4.8,5.8,49,0.00,BKN,,0.00,WeatherDisplay:10.37,2013-04-21 15:18:00,
2013-04-21 11:23:00,37.9,20.9,30.66,ENE,68,2.0,3.5,50,0.00,BKN,,0.00,WeatherDisplay:10.37,2013-04-21 15:23:00,
2013-04-21 11:28:00,38.8,21.3,30.66,East,90,6.8,8.1,49,0.00,BKN,,0.00,WeatherDisplay:10.37,2013-04-21 15:28:00,
2013-04-21 11:33:00,40.3,23.1,30.66,North,360,3.8,5.8,50,0.00,BKN,,0.00,WeatherDisplay:10.37,2013-04-21 15:33:00,
2013-04-21 11:38:00,39.4,21.8,30.66,SE,135,4.1,5.8,49,0.00,BKN,,0.00,WeatherDisplay:10.37,2013-04-21 15:38:00,
2013-04-21 11:43:00,40.5,21.8,30.66,SE,135,1.8,3.5,47,0.00,BKN,,0.00,WeatherDisplay:10.37,2013-04-21 15:43:00,
2013-04-21 11:48:00,40.8,22.1,30.66,SSE,158,3.5,4.6,47,0.00,BKN,,0.00,WeatherDisplay:10.37,2013-04-21 15:48:00,
2013-04-21 11:53:00,40.3,21.6,30.66,NNW,338,1.2,2.3,47,0.00,BKN,,0.00,WeatherDisplay:10.37,2013-04-21 15:53:00,
2013-04-21 11:58:00,39.9,21.3,30.66,West,270,3.2,5.8,47,0.00,BKN,,0.00,WeatherDisplay:10.37,2013-04-21 15:58:00,
2013-04-21 12:03:00,41.2,23.5,30.66,East,90,5.3,8.1,49,0.00,BKN,,0.00,WeatherDisplay:10.37,2013-04-21 16:03:00,
2013-04-21 12:08:00,40.1,22.0,30.66,NE,45,2.8,4.6,48,0.00,BKN,,0.00,WeatherDisplay:10.37,2013-04-21 16:08:00,
2013-04-21 12:13:00,38.8,21.3,30.66,West,270,0.3,1.1,49,0.00,BKN,,0.00,WeatherDisplay:10.37,2013-04-21 16:13:00,
2013-04-21 12:18:00,39.2,21.1,30.65,ENE,68,3.1,6.9,48,0.00,BKN,,0.00,WeatherDisplay:10.37,2013-04-21 16:18:00,
2013-04-21 12:23:00,39.9,21.8,30.65,West,270,2.7,3.7,48,0.00,BKN,,0.00,WeatherDisplay:10.37,2013-04-21 16:23:00,
2013-04-21 12:28:00,41.7,23.9,30.65,West,270,4.4,6.9,49,0.00,BKN,,0.00,WeatherDisplay:10.37,2013-04-21 16:28:00,
2013-04-21 12:33:00,41.9,23.6,30.65,NNW,338,5.4,6.9,48,0.00,BKN,,0.00,WeatherDisplay:10.37,2013-04-21 16:33:00,
2013-04-21 12:38:00,41.4,22.7,30.65,WNW,292,3.2,5.8,47,0.00,BKN,,0.00,WeatherDisplay:10.37,2013-04-21 16:38:00,
2013-04-21 12:43:00,42.1,23.3,30.64,NNE,22,5.0,5.8,47,0.00,BKN,,0.00,WeatherDisplay:10.37,2013-04-21 16:43:00,
2013-04-21 12:48:00,41.4,23.6,30.64,SW,225,1.1,2.3,49,0.00,BKN,,0.00,WeatherDisplay:10.37,2013-04-21 16:48:00,
2013-04-21 12:53:00,42.6,24.8,30.64,WNW,292,2.8,3.7,49,0.00,BKN,,0.00,WeatherDisplay:10.37,2013-04-21 16:53:00,
2013-04-21 12:58:00,42.4,25.1,30.64,SSE,158,4.1,5.8,50,0.00,BKN,,0.00,WeatherDisplay:10.37,2013-04-21 16:58:00,
2013-04-21 13:03:00,42.6,23.8,30.64,East,90,5.2,6.3,47,0.00,SCT,,0.00,WeatherDisplay:10.37,2013-04-21 17:03:00,
2013-04-21 13:08:00,42.3,23.5,30.63,ESE,112,4.0,5.8,47,0.00,SCT,,0.00,WeatherDisplay:10.37,2013-04-21 17:08:00,
2013-04-21 13:13:00,43.2,24.8,30.63,ESE,112,4.1,5.8,48,0.00,SCT,,0.00,WeatherDisplay:10.37,2013-04-21 17:13:00,
2013-04-21 13:18:00,42.6,23.2,30.62,SW,225,2.6,3.5,46,0.00,SCT,,0.00,WeatherDisplay:10.37,2013-04-21 17:18:00,
2013-04-21 13:23:00,43.7,25.3,30.62,ESE,112,4.1,5.8,48,0.00,SCT,,0.00,WeatherDisplay:10.37,2013-04-21 17:23:00,
2013-04-21 13:28:00,43.5,24.6,30.62,SE,135,9.0,10.4,47,0.00,SCT,,0.00,WeatherDisplay:10.37,2013-04-21 17:28:00,
2013-04-21 13:33:00,42.6,23.8,30.62,ENE,68,1.8,4.7,47,0.00,SCT,,0.00,WeatherDisplay:10.37,2013-04-21 17:33:00,
2013-04-21 13:38:00,43.7,24.2,30.62,North,360,3.5,4.6,46,0.00,SCT,,0.00,WeatherDisplay:10.37,2013-04-21 17:38:00,
2013-04-21 13:43:00,43.2,23.3,30.62,SSE,158,2.4,3.5,45,0.00,SCT,,0.00,WeatherDisplay:10.37,2013-04-21 17:43:00,
2013-04-21 13:48:00,43.7,23.7,30.62,ESE,112,5.5,6.9,45,0.00,SCT,,0.00,WeatherDisplay:10.37,2013-04-21 17:48:00,
2013-04-21 13:53:00,43.7,23.7,30.62,ESE,112,4.9,5.8,45,0.00,SCT,,0.00,WeatherDisplay:10.37,2013-04-21 17:53:00,
2013-04-21 13:58:00,43.9,24.4,30.62,NE,45,3.2,5.8,46,0.00,SCT,,0.00,WeatherDisplay:10.37,2013-04-21 17:58:00,
2013-04-21 14:03:00,44.6,25.6,30.62,North,360,4.9,9.4,47,0.00,SCT,,0.00,WeatherDisplay:10.37,2013-04-21 18:03:00,
2013-04-21 14:08:00,44.2,24.2,30.61,SSE,158,4.4,6.3,45,0.00,SCT,,0.00,WeatherDisplay:10.37,2013-04-21 18:08:00,
2013-04-21 14:13:00,46.0,26.9,30.61,ESE,112,4.4,5.8,47,0.00,SCT,,0.00,WeatherDisplay:10.37,2013-04-21 18:13:00,
2013-04-21 14:18:00,45.3,24.6,30.61,West,270,3.6,4.6,44,0.00,SCT,,0.00,WeatherDisplay:10.37,2013-04-21 18:18:00,
2013-04-21 14:23:00,44.4,25.4,30.61,North,360,4.8,5.8,47,0.00,SCT,,0.00,WeatherDisplay:10.37,2013-04-21 18:23:00,
2013-04-21 14:28:00,44.2,23.6,30.60,NNE,22,3.3,4.6,44,0.00,SCT,,0.00,WeatherDisplay:10.37,2013-04-21 18:28:00,
2013-04-21 14:33:00,44.8,24.2,30.60,North,360,4.1,4.7,44,0.00,SCT,,0.00,WeatherDisplay:10.37,2013-04-21 18:33:00,
2013-04-21 14:38:00,45.5,24.8,30.60,ESE,112,4.5,5.8,44,0.00,SCT,,0.00,WeatherDisplay:10.37,2013-04-21 18:38:00,
2013-04-21 14:43:00,45.5,24.3,30.60,East,90,7.2,8.1,43,0.00,SCT,,0.00,WeatherDisplay:10.37,2013-04-21 18:43:00,
2013-04-21 14:48:00,45.1,23.3,30.60,East,90,5.6,7.3,42,0.00,SCT,,0.00,WeatherDisplay:10.37,2013-04-21 18:48:00,
2013-04-21 14:53:00,46.4,26.2,30.60,SSW,202,4.0,5.8,45,0.00,SCT,,0.00,WeatherDisplay:10.37,2013-04-21 18:53:00,
2013-04-21 14:58:00,46.4,25.6,30.60,SE,135,5.8,12.7,44,0.00,SCT,,0.00,WeatherDisplay:10.37,2013-04-21 18:58:00,
2013-04-21 15:03:00,45.9,25.2,30.60,ESE,112,8.2,9.2,44,0.00,SCT,,0.00,WeatherDisplay:10.37,2013-04-21 19:03:00,
2013-04-21 15:08:00,46.0,25.8,30.59,ESE,112,4.4,5.8,45,0.00,SCT,,0.00,WeatherDisplay:10.37,2013-04-21 19:08:00,
2013-04-21 15:13:00,46.0,25.3,30.59,ESE,112,6.1,7.3,44,0.00,SCT,,0.00,WeatherDisplay:10.37,2013-04-21 19:13:00,
2013-04-21 15:18:00,45.9,24.6,30.59,ESE,112,7.3,9.2,43,0.00,SCT,,0.00,WeatherDisplay:10.37,2013-04-21 19:18:00,
2013-04-21 15:23:00,46.6,25.3,30.59,NNE,22,5.3,6.3,43,0.00,SCT,,0.00,WeatherDisplay:10.37,2013-04-21 19:23:00,
2013-04-21 15:28:00,46.4,25.6,30.58,NNE,22,5.5,5.8,44,0.00,SCT,,0.00,WeatherDisplay:10.37,2013-04-21 19:28:00,
2013-04-21 15:33:00,46.6,24.1,30.58,East,90,7.8,8.1,41,0.00,SCT,,0.00,WeatherDisplay:10.37,2013-04-21 19:33:00,
2013-04-21 15:38:00,46.4,25.1,30.58,South,180,8.2,10.4,43,0.00,SCT,,0.00,WeatherDisplay:10.37,2013-04-21 19:38:00,
2013-04-21 15:43:00,45.9,24.1,30.57,NW,315,3.7,6.9,42,0.00,SCT,,0.00,WeatherDisplay:10.37,2013-04-21 19:43:00,
2013-04-21 15:48:00,46.6,25.8,30.57,ESE,112,4.1,5.8,44,0.00,SCT,,0.00,WeatherDisplay:10.37,2013-04-21 19:48:00,
2013-04-21 15:53:00,46.4,24.5,30.57,NNW,338,6.8,10.4,42,0.00,SCT,,0.00,WeatherDisplay:10.37,2013-04-21 19:53:00,
2013-04-21 15:58:00,46.6,25.3,30.57,ENE,68,7.9,9.9,43,0.00,SCT,,0.00,WeatherDisplay:10.37,2013-04-21 19:58:00,
2013-04-21 16:03:00,46.2,24.9,30.57,ESE,112,8.1,9.4,43,0.00,SCT,,0.00,WeatherDisplay:10.37,2013-04-21 20:03:00,
2013-04-21 16:08:00,46.6,25.8,30.56,ENE,68,6.4,8.1,44,0.00,SCT,,0.00,WeatherDisplay:10.37,2013-04-21 20:08:00,
2013-04-21 16:13:00,46.4,25.6,30.56,NE,45,4.7,5.8,44,0.00,SCT,,0.00,WeatherDisplay:10.37,2013-04-21 20:13:00,
2013-04-21 16:18:00,47.1,26.3,30.55,ENE,68,4.5,5.8,44,0.00,SCT,,0.00,WeatherDisplay:10.37,2013-04-21 20:18:00,
2013-04-21 16:23:00,46.8,24.9,30.55,SE,135,6.6,9.2,42,0.00,SCT,,0.00,WeatherDisplay:10.37,2013-04-21 20:23:00,
2013-04-21 16:28:00,46.4,25.1,30.55,SE,135,6.5,10.4,43,0.00,SCT,,0.00,WeatherDisplay:10.37,2013-04-21 20:28:00,
2013-04-21 16:33:00,46.8,26.0,30.55,NE,45,5.0,5.8,44,0.00,SCT,,0.00,WeatherDisplay:10.37,2013-04-21 20:33:00,
2013-04-21 16:38:00,47.1,25.7,30.55,ESE,112,8.8,12.4,43,0.00,SCT,,0.00,WeatherDisplay:10.37,2013-04-21 20:38:00,
2013-04-21 16:43:00,46.9,25.5,30.55,ESE,112,7.3,9.2,43,0.00,SCT,,0.00,WeatherDisplay:10.37,2013-04-21 20:43:00,
2013-04-21 16:48:00,47.1,25.7,30.55,NE,45,5.2,5.8,43,0.00,SCT,,0.00,WeatherDisplay:10.37,2013-04-21 20:48:00,
2013-04-21 16:53:00,46.6,25.8,30.55,ESE,112,7.9,8.1,44,0.00,SCT,,0.00,WeatherDisplay:10.37,2013-04-21 20:53:00,
2013-04-21 16:58:00,46.6,25.3,30.55,East,90,6.3,6.3,43,0.00,SCT,,0.00,WeatherDisplay:10.37,2013-04-21 20:58:00,
2013-04-21 17:03:00,46.6,24.7,30.55,ESE,112,7.7,10.4,42,0.00,SCT,,0.00,WeatherDisplay:10.37,2013-04-21 21:03:00,
2013-04-21 17:08:00,46.9,26.1,30.55,East,90,6.8,9.9,44,0.00,SCT,,0.00,WeatherDisplay:10.37,2013-04-21 21:08:00,
2013-04-21 17:13:00,46.6,25.8,30.55,ESE,112,4.0,6.9,44,0.00,SCT,,0.00,WeatherDisplay:10.37,2013-04-21 21:13:00,
2013-04-21 17:18:00,46.9,26.1,30.55,East,90,4.5,8.1,44,0.00,SCT,,0.00,WeatherDisplay:10.37,2013-04-21 21:18:00,
2013-04-21 17:23:00,47.5,26.1,30.55,ESE,112,5.0,5.8,43,0.00,SCT,,0.00,WeatherDisplay:10.37,2013-04-21 21:23:00,
2013-04-21 17:28:00,48.4,26.3,30.55,ESE,112,6.4,10.4,42,0.00,SCT,,0.00,WeatherDisplay:10.37,2013-04-21 21:28:00,
2013-04-21 17:33:00,47.8,25.2,30.55,ESE,112,8.0,9.2,41,0.00,SCT,,0.00,WeatherDisplay:10.37,2013-04-21 21:33:00,
2013-04-21 17:38:00,47.3,25.3,30.55,ENE,68,5.6,9.2,42,0.00,SCT,,0.00,WeatherDisplay:10.37,2013-04-21 21:38:00,
2013-04-21 17:43:00,48.2,26.2,30.55,East,90,6.3,7.3,42,0.00,SCT,,0.00,WeatherDisplay:10.37,2013-04-21 21:43:00,
2013-04-21 17:48:00,48.0,25.4,30.55,ENE,68,6.2,8.8,41,0.00,SCT,,0.00,WeatherDisplay:10.37,2013-04-21 21:48:00,
2013-04-21 17:53:00,47.3,25.3,30.54,ESE,112,7.9,10.4,42,0.00,SCT,,0.00,WeatherDisplay:10.37,2013-04-21 21:53:00,
2013-04-21 17:58:00,47.7,26.3,30.54,NW,315,3.6,5.8,43,0.00,SCT,,0.00,WeatherDisplay:10.37,2013-04-21 21:58:00,
2013-04-21 18:03:00,47.7,25.7,30.54,North,360,7.8,10.4,42,0.00,SCT,,0.00,WeatherDisplay:10.37,2013-04-21 22:03:00,
2013-04-21 18:08:00,48.2,26.2,30.55,NNE,22,4.8,7.3,42,0.00,SCT,,0.00,WeatherDisplay:10.37,2013-04-21 22:08:00,
2013-04-21 18:13:00,47.5,24.9,30.55,East,90,7.3,8.1,41,0.00,SCT,,0.00,WeatherDisplay:10.37,2013-04-21 22:13:00,
2013-04-21 18:18:00,47.7,25.7,30.55,East,90,4.3,5.8,42,0.00,SCT,,0.00,WeatherDisplay:10.37,2013-04-21 22:18:00,
2013-04-21 18:23:00,47.3,25.3,30.55,ESE,112,6.1,6.9,42,0.00,SCT,,0.00,WeatherDisplay:10.37,2013-04-21 22:23:00,
2013-04-21 18:28:00,47.5,25.5,30.55,ESE,112,6.3,8.1,42,0.00,SCT,,0.00,WeatherDisplay:10.37,2013-04-21 22:28:00,
2013-04-21 18:33:00,46.9,25.0,30.55,NE,45,6.5,8.8,42,0.00,SCT,,0.00,WeatherDisplay:10.37,2013-04-21 22:33:00,
2013-04-21 18:38:00,46.6,24.7,30.55,ENE,68,5.6,6.9,42,0.00,SCT,,0.00,WeatherDisplay:10.37,2013-04-21 22:38:00,
2013-04-21 18:43:00,46.9,25.5,30.55,ESE,112,7.3,10.4,43,0.00,SCT,,0.00,WeatherDisplay:10.37,2013-04-21 22:43:00,
2013-04-21 18:48:00,46.0,24.7,30.55,ESE,112,8.0,12.7,43,0.00,SCT,,0.00,WeatherDisplay:10.37,2013-04-21 22:48:00,
2013-04-21 18:53:00,45.9,24.6,30.55,SE,135,6.1,8.3,43,0.00,SCT,,0.00,WeatherDisplay:10.37,2013-04-21 22:53:00,
2013-04-21 18:58:00,45.5,24.3,30.55,ESE,112,8.2,10.4,43,0.00,SCT,,0.00,WeatherDisplay:10.37,2013-04-21 22:58:00,
2013-04-21 19:03:00,45.3,24.1,30.55,East,90,7.7,10.4,43,0.00,SCT,,0.00,WeatherDisplay:10.37,2013-04-21 23:03:00,
2013-04-21 19:08:00,45.1,24.5,30.55,SE,135,5.2,8.8,44,0.00,SCT,,0.00,WeatherDisplay:10.37,2013-04-21 23:08:00,
2013-04-21 19:13:00,45.0,24.4,30.55,SE,135,4.8,5.8,44,0.00,SCT,,0.00,WeatherDisplay:10.37,2013-04-21 23:13:00,
2013-04-21 19:18:00,44.8,24.2,30.55,East,90,5.6,7.8,44,0.00,SCT,,0.00,WeatherDisplay:10.37,2013-04-21 23:18:00,
2013-04-21 19:23:00,44.4,24.4,30.55,ESE,112,6.0,6.9,45,0.00,SCT,,0.00,WeatherDisplay:10.37,2013-04-21 23:23:00,
2013-04-21 19:28:00,44.2,24.2,30.55,ENE,68,6.7,8.1,45,0.00,SCT,,0.00,WeatherDisplay:10.37,2013-04-21 23:28:00,
2013-04-21 19:33:00,44.1,24.6,30.55,ESE,112,5.2,5.8,46,0.00,SCT,,0.00,WeatherDisplay:10.37,2013-04-21 23:33:00,
2013-04-21 19:38:00,43.7,24.2,30.55,ENE,68,4.9,5.8,46,0.00,SCT,,0.00,WeatherDisplay:10.37,2013-04-21 23:38:00,
2013-04-21 19:43:00,43.5,24.1,30.55,ESE,112,4.5,5.8,46,0.00,SCT,,0.00,WeatherDisplay:10.37,2013-04-21 23:43:00,
2013-04-21 19:48:00,43.3,23.9,30.55,East,90,7.5,9.2,46,0.00,SCT,,0.00,WeatherDisplay:10.37,2013-04-21 23:48:00,
2013-04-21 19:53:00,42.4,25.1,30.55,SE,135,6.3,9.2,50,0.00,SCT,,0.00,WeatherDisplay:10.37,2013-04-21 23:53:00,
2013-04-21 19:58:00,41.9,25.1,30.55,ESE,112,7.1,9.2,51,0.00,SCT,,0.00,WeatherDisplay:10.37,2013-04-21 23:58:00,
2013-04-21 20:03:00,41.4,25.1,30.55,ESE,112,4.2,5.8,52,0.00,BKN,,0.00,WeatherDisplay:10.37,2013-04-22 00:03:00,
2013-04-21 20:08:00,41.0,25.2,30.56,ESE,112,6.1,6.9,53,0.00,BKN,,0.00,WeatherDisplay:10.37,2013-04-22 00:08:00,
2013-04-21 20:13:00,40.6,24.8,30.56,ESE,112,4.5,8.8,53,0.00,BKN,,0.00,WeatherDisplay:10.37,2013-04-22 00:13:00,
2013-04-21 20:18:00,40.5,24.7,30.56,ESE,112,6.3,6.3,53,0.00,BKN,,0.00,WeatherDisplay:10.37,2013-04-22 00:18:00,
2013-04-21 20:23:00,40.1,24.8,30.56,ESE,112,6.6,8.3,54,0.00,BKN,,0.00,WeatherDisplay:10.37,2013-04-22 00:23:00,
2013-04-21 20:28:00,39.7,24.4,30.56,ENE,68,5.9,8.1,54,0.00,BKN,,0.00,WeatherDisplay:10.37,2013-04-22 00:28:00,
2013-04-21 20:33:00,39.6,24.7,30.56,SE,135,3.8,4.7,55,0.00,BKN,,0.00,WeatherDisplay:10.37,2013-04-22 00:33:00,
2013-04-21 20:38:00,39.4,24.6,30.56,East,90,4.6,5.8,55,0.00,BKN,,0.00,WeatherDisplay:10.37,2013-04-22 00:38:00,
2013-04-21 20:43:00,39.0,24.2,30.56,NE,45,5.1,5.8,55,0.00,BKN,,0.00,WeatherDisplay:10.37,2013-04-22 00:43:00,
2013-04-21 20:48:00,39.0,23.7,30.56,ESE,112,6.9,8.1,54,0.00,BKN,,0.00,WeatherDisplay:10.37,2013-04-22 00:48:00,
2013-04-21 20:53:00,39.0,23.7,30.56,ESE,112,4.9,7.3,54,0.00,BKN,,0.00,WeatherDisplay:10.37,2013-04-22 00:53:00,
2013-04-21 20:58:00,38.7,23.5,30.56,ESE,112,5.6,7.3,54,0.00,BKN,,0.00,WeatherDisplay:10.37,2013-04-22 00:58:00,
2013-04-21 21:03:00,38.5,23.7,30.56,ENE,68,6.7,8.1,55,0.00,BKN,,0.00,WeatherDisplay:10.37,2013-04-22 01:03:00,
2013-04-21 21:08:00,38.3,23.5,30.57,ESE,112,6.3,7.3,55,0.00,BKN,,0.00,WeatherDisplay:10.37,2013-04-22 01:08:00,
2013-04-21 21:13:00,38.1,23.3,30.57,ESE,112,5.7,6.9,55,0.00,SCT,,0.00,WeatherDisplay:10.37,2013-04-22 01:13:00,
2013-04-21 21:18:00,37.9,23.2,30.57,East,90,8.3,10.4,55,0.00,SCT,,0.00,WeatherDisplay:10.37,2013-04-22 01:18:00,
2013-04-21 21:23:00,37.8,23.1,30.57,ESE,112,6.0,7.3,55,0.00,SCT,,0.00,WeatherDisplay:10.37,2013-04-22 01:23:00,
2013-04-21 21:28:00,37.8,23.1,30.57,ESE,112,5.8,6.9,55,0.00,SCT,,0.00,WeatherDisplay:10.37,2013-04-22 01:28:00,
2013-04-21 21:33:00,37.6,23.3,30.57,ESE,112,5.4,6.9,56,0.00,SCT,,0.00,WeatherDisplay:10.37,2013-04-22 01:33:00,
2013-04-21 21:38:00,37.2,22.9,30.57,East,90,5.1,7.3,56,0.00,SCT,,0.00,WeatherDisplay:10.37,2013-04-22 01:38:00,
2013-04-21 21:43:00,37.2,22.9,30.57,ENE,68,6.9,8.1,56,0.00,SCT,,0.00,WeatherDisplay:10.37,2013-04-22 01:43:00,
2013-04-21 21:48:00,37.2,22.9,30.57,ESE,112,5.3,6.9,56,0.00,SCT,,0.00,WeatherDisplay:10.37,2013-04-22 01:48:00,
2013-04-21 21:53:00,37.0,22.7,30.57,NE,45,6.8,9.2,56,0.00,SCT,,0.00,WeatherDisplay:10.37,2013-04-22 01:53:00,
2013-04-21 21:58:00,37.0,22.7,30.57,ESE,112,5.1,6.9,56,0.00,SCT,,0.00,WeatherDisplay:10.37,2013-04-22 01:58:00,
2013-04-21 22:03:00,36.9,22.2,30.57,ENE,68,5.3,5.8,55,0.00,BKN,,0.00,WeatherDisplay:10.37,2013-04-22 02:03:00,
2013-04-21 22:08:00,36.9,22.2,30.57,ESE,112,6.4,9.2,55,0.00,BKN,,0.00,WeatherDisplay:10.37,2013-04-22 02:08:00,
2013-04-21 22:13:00,36.7,22.0,30.57,ESE,112,4.8,8.1,55,0.00,BKN,,0.00,WeatherDisplay:10.37,2013-04-22 02:13:00,
2013-04-21 22:18:00,36.5,21.8,30.57,ESE,112,6.4,10.4,55,0.00,BKN,,0.00,WeatherDisplay:10.37,2013-04-22 02:18:00,
2013-04-21 22:23:00,36.3,21.7,30.57,East,90,4.7,5.8,55,0.00,BKN,,0.00,WeatherDisplay:10.37,2013-04-22 02:23:00,
2013-04-21 22:28:00,36.3,21.7,30.57,East,90,5.9,8.1,55,0.00,BKN,,0.00,WeatherDisplay:10.37,2013-04-22 02:28:00,
2013-04-21 22:33:00,36.1,21.5,30.57,ESE,112,7.3,7.8,55,0.00,BKN,,0.00,WeatherDisplay:10.37,2013-04-22 02:33:00,
2013-04-21 22:38:00,36.1,21.0,30.57,ESE,112,6.9,8.1,54,0.00,BKN,,0.00,WeatherDisplay:10.37,2013-04-22 02:38:00,
2013-04-21 22:43:00,36.0,20.5,30.56,ESE,112,5.6,6.8,53,0.00,BKN,,0.00,WeatherDisplay:10.37,2013-04-22 02:43:00,
2013-04-21 22:48:00,36.0,20.5,30.56,East,90,4.0,6.3,53,0.00,BKN,,0.00,WeatherDisplay:10.37,2013-04-22 02:48:00,
2013-04-21 22:53:00,35.8,20.3,30.56,ESE,112,4.5,4.6,53,0.00,BKN,,0.00,WeatherDisplay:10.37,2013-04-22 02:53:00,
2013-04-21 22:58:00,35.6,20.1,30.56,East,90,5.5,7.3,53,0.00,BKN,,0.00,WeatherDisplay:10.37,2013-04-22 02:58:00,
2013-04-21 23:03:00,35.6,20.1,30.56,ESE,112,5.4,5.8,53,0.00,BKN,,0.00,WeatherDisplay:10.37,2013-04-22 03:03:00,
2013-04-21 23:08:00,35.2,20.2,30.56,ESE,112,3.5,4.6,54,0.00,BKN,,0.00,WeatherDisplay:10.37,2013-04-22 03:08:00,
2013-04-21 23:13:00,35.2,20.2,30.56,ESE,112,4.4,4.7,54,0.00,BKN,,0.00,WeatherDisplay:10.37,2013-04-22 03:13:00,
2013-04-21 23:18:00,35.1,20.5,30.56,South,180,4.1,5.8,55,0.00,BKN,,0.00,WeatherDisplay:10.37,2013-04-22 03:18:00,
2013-04-21 23:23:00,34.9,20.4,30.56,ESE,112,4.2,4.7,55,0.00,BKN,,0.00,WeatherDisplay:10.37,2013-04-22 03:23:00,
2013-04-21 23:28:00,34.9,20.4,30.56,ESE,112,3.3,5.8,55,0.00,BKN,,0.00,WeatherDisplay:10.37,2013-04-22 03:28:00,
2013-04-21 23:33:00,34.7,20.2,30.56,ESE,112,4.1,5.8,55,0.00,BKN,,0.00,WeatherDisplay:10.37,2013-04-22 03:33:00,
2013-04-21 23:38:00,34.7,20.6,30.56,SE,135,3.4,4.2,56,0.00,BKN,,0.00,WeatherDisplay:10.37,2013-04-22 03:38:00,
2013-04-21 23:43:00,34.7,20.6,30.55,SE,135,4.8,5.8,56,0.00,BKN,,0.00,WeatherDisplay:10.37,2013-04-22 03:43:00,
2013-04-21 23:48:00,34.5,20.4,30.55,ESE,112,3.8,4.6,56,0.00,BKN,,0.00,WeatherDisplay:10.37,2013-04-22 03:48:00,
2013-04-21 23:53:00,34.3,20.6,30.55,East,90,3.5,4.6,57,0.00,BKN,,0.00,WeatherDisplay:10.37,2013-04-22 03:53:00,
2013-04-21 23:58:00,34.2,20.5,30.55,SE,135,3.5,4.7,57,0.00,BKN,,0.00,WeatherDisplay:10.37,2013-04-22 03:58:00,